createdAt,value
2018-11-01T00:00:18.708Z,4.20
2018-11-01T00:02:47.637Z,4.22
2018-11-01T00:05:16.647Z,3.72
2018-11-01T00:07:45.674Z,4.00
2018-11-01T00:10:14.557Z,3.67
2018-11-01T00:12:44.243Z,3.80
2018-11-01T00:15:14.187Z,3.98
2018-11-01T00:17:42.871Z,3.60
2018-11-01T00:20:12.871Z,3.60
2018-11-01T00:22:42.294Z,3.50
2018-11-01T00:25:12.198Z,3.80
2018-11-01T00:27:41.478Z,3.93
2018-11-01T00:30:11.046Z,3.42
2018-11-01T00:32:39.824Z,3.58
2018-11-01T00:35:09.120Z,3.30
2018-11-01T00:37:37.939Z,3.40
2018-11-01T00:40:09.254Z,3.30
2018-11-01T00:42:37.962Z,3.50
2018-11-01T00:45:07.295Z,3.27
2018-11-01T00:47:36.102Z,3.22
2018-11-01T00:50:05.114Z,3.73
2018-11-01T00:52:33.881Z,3.70
2018-11-01T00:55:02.563Z,3.43
2018-11-01T00:57:31.355Z,3.30
2018-11-01T01:00:00.191Z,3.30
2018-11-01T01:02:28.922Z,3.20
2018-11-01T01:04:57.602Z,3.70
2018-11-01T01:07:26.365Z,2.90
2018-11-01T01:09:55.088Z,3.17
2018-11-01T01:12:23.790Z,3.43
2018-11-01T01:14:52.640Z,3.40
2018-11-01T01:17:21.338Z,3.07
2018-11-01T01:19:50.022Z,3.60
2018-11-01T01:22:18.758Z,3.30
2018-11-01T01:24:47.438Z,3.12
2018-11-01T01:27:16.130Z,3.17
2018-11-01T01:29:44.845Z,3.05
2018-11-01T01:32:13.561Z,3.33
2018-11-01T01:34:42.366Z,3.37
2018-11-01T01:37:11.095Z,3.20
2018-11-01T01:39:39.812Z,2.90
2018-11-01T01:42:08.562Z,3.60
2018-11-01T01:44:37.280Z,2.77
2018-11-01T01:47:06.442Z,3.27
2018-11-01T01:49:35.118Z,2.83
2018-11-01T01:52:03.944Z,2.80
2018-11-01T01:54:32.679Z,3.10
2018-11-01T01:57:01.457Z,2.90
2018-11-01T01:59:30.555Z,2.80
2018-11-01T02:01:59.255Z,2.87
2018-11-01T02:04:27.893Z,3.03
2018-11-01T02:06:56.674Z,3.30
2018-11-01T02:09:25.359Z,3.00
2018-11-01T02:11:54.157Z,3.00
2018-11-01T02:14:23.059Z,2.93
2018-11-01T02:16:51.735Z,2.97
2018-11-01T02:19:20.423Z,2.70
2018-11-01T02:21:49.157Z,2.95
2018-11-01T02:24:17.846Z,3.00
2018-11-01T02:26:46.783Z,3.05
2018-11-01T02:29:15.906Z,2.83
2018-11-01T02:31:44.593Z,3.35
2018-11-01T02:34:13.291Z,3.10
2018-11-01T02:36:42.026Z,3.07
2018-11-01T02:39:12.091Z,3.02
2018-11-01T02:41:41.102Z,3.00
2018-11-01T02:44:10.326Z,2.90
2018-11-01T02:46:39.021Z,2.83
2018-11-01T02:49:08.489Z,2.90
2018-11-01T02:51:38.338Z,3.00
2018-11-01T02:54:07.414Z,3.02
2018-11-01T02:56:36.093Z,2.83
2018-11-01T02:59:04.846Z,3.17
2018-11-01T03:01:33.549Z,3.05
2018-11-01T03:04:02.245Z,2.80
2018-11-01T03:06:31.691Z,3.33
2018-11-01T03:09:00.367Z,3.17
2018-11-01T03:11:29.123Z,3.10
2018-11-01T03:13:57.878Z,3.00
2018-11-01T03:16:26.586Z,2.95
2018-11-01T03:18:55.315Z,3.07
2018-11-01T03:21:24.063Z,3.20
2018-11-01T03:23:52.790Z,3.20
2018-11-01T03:26:21.507Z,2.93
2018-11-01T03:28:50.348Z,3.20
2018-11-01T03:31:19.009Z,3.20
2018-11-01T03:33:47.726Z,3.02
2018-11-01T03:36:16.536Z,3.20
2018-11-01T03:38:45.289Z,3.20
2018-11-01T03:41:13.972Z,3.02
2018-11-01T03:43:42.869Z,3.03
2018-11-01T03:46:11.734Z,3.27
2018-11-01T03:48:40.424Z,3.30
2018-11-01T03:51:09.159Z,3.10
2018-11-01T03:53:38.017Z,2.90
2018-11-01T03:56:06.664Z,3.10
2018-11-01T03:58:35.623Z,3.30
2018-11-01T04:01:04.335Z,3.10
2018-11-01T04:03:33.035Z,3.17
2018-11-01T04:06:01.812Z,2.98
2018-11-01T04:08:30.527Z,3.23
2018-11-01T04:10:59.237Z,3.27
2018-11-01T04:13:28.076Z,3.30
2018-11-01T04:15:56.847Z,2.83
2018-11-01T04:18:25.519Z,3.20
2018-11-01T04:20:54.334Z,3.10
2018-11-01T04:23:23.207Z,3.73
2018-11-01T04:25:54.729Z,3.60
2018-11-01T04:28:23.537Z,3.20
2018-11-01T04:30:52.271Z,3.70
2018-11-01T04:33:21.058Z,4.07
2018-11-01T04:35:49.802Z,3.50
2018-11-01T04:38:18.537Z,5.20
2018-11-01T04:40:47.324Z,4.07
2018-11-01T04:43:16.265Z,3.70
2018-11-01T04:45:45.003Z,3.77
2018-11-01T04:48:13.854Z,3.70
2018-11-01T04:50:42.687Z,3.60
2018-11-01T04:53:11.353Z,3.75
2018-11-01T04:55:40.032Z,4.00
2018-11-01T04:58:08.856Z,4.22
2018-11-01T05:00:37.859Z,3.80
2018-11-01T05:03:06.799Z,4.90
2018-11-01T05:05:35.564Z,4.77
2018-11-01T05:08:04.294Z,5.10
2018-11-01T05:10:33.012Z,4.87
2018-11-01T05:13:02.017Z,5.85
2018-11-01T05:15:30.692Z,4.77
2018-11-01T05:17:59.348Z,5.17
2018-11-01T05:20:28.051Z,5.13
2018-11-01T05:22:56.819Z,5.73
2018-11-01T05:25:32.536Z,5.20
2018-11-01T05:28:01.905Z,5.50
2018-11-01T05:30:30.639Z,6.30
2018-11-01T05:32:59.634Z,5.77
2018-11-01T05:35:28.331Z,5.20
2018-11-01T05:37:57.024Z,6.00
2018-11-01T05:40:25.746Z,5.63
2018-11-01T05:42:54.467Z,5.63
2018-11-01T05:45:23.152Z,6.10
2018-11-01T05:47:51.926Z,6.30
2018-11-01T05:50:20.794Z,5.37
2018-11-01T05:52:49.486Z,5.23
2018-11-01T05:55:18.596Z,5.40
2018-11-01T05:57:47.297Z,5.10
2018-11-01T06:00:16.038Z,5.07
2018-11-01T06:02:47.093Z,4.97
2018-11-01T06:05:15.772Z,5.17
2018-11-01T06:07:53.506Z,4.63
2018-11-01T06:10:22.195Z,5.23
2018-11-01T06:12:50.971Z,4.60
2018-11-01T06:15:19.819Z,4.78
2018-11-01T06:17:48.539Z,5.03
2018-11-01T06:20:17.325Z,4.80
2018-11-01T06:22:46.178Z,5.12
2018-11-01T06:25:15.093Z,4.60
2018-11-01T06:27:43.841Z,4.47
2018-11-01T06:30:15.479Z,4.20
2018-11-01T06:32:45.180Z,4.23
2018-11-01T06:35:21.997Z,4.72
2018-11-01T06:37:50.827Z,4.70
2018-11-01T06:40:19.592Z,4.17
2018-11-01T06:42:49.170Z,4.47
2018-11-01T06:45:18.330Z,4.50
2018-11-01T06:47:47.049Z,4.78
2018-11-01T06:50:15.778Z,4.63
2018-11-01T06:52:44.703Z,4.60
2018-11-01T06:55:13.424Z,4.73
2018-11-01T06:57:42.354Z,4.70
2018-11-01T07:00:14.085Z,4.90
2018-11-01T07:02:42.916Z,4.93
2018-11-01T07:05:12.373Z,4.75
2018-11-01T07:07:41.116Z,4.47
2018-11-01T07:10:12.337Z,4.90
2018-11-01T07:12:41.070Z,4.90
2018-11-01T07:15:11.303Z,4.72
2018-11-01T07:17:40.612Z,5.03
2018-11-01T07:20:10.311Z,5.90
2018-11-01T07:22:39.979Z,5.62
2018-11-01T07:25:10.868Z,5.40
2018-11-01T07:27:39.513Z,5.37
2018-11-01T07:30:13.578Z,5.67
2018-11-01T07:32:42.432Z,6.17
2018-11-01T07:35:11.920Z,5.95
2018-11-01T07:37:41.963Z,6.07
2018-11-01T07:40:12.903Z,6.63
2018-11-01T07:42:41.632Z,5.30
2018-11-01T07:45:11.405Z,5.47
2018-11-01T07:47:41.332Z,5.70
2018-11-01T07:50:11.090Z,5.43
2018-11-01T07:52:40.449Z,5.40
2018-11-01T07:55:11.317Z,6.03
2018-11-01T07:57:39.972Z,5.93
2018-11-01T08:00:12.426Z,6.12
2018-11-01T08:02:41.352Z,5.85
2018-11-01T08:05:11.027Z,6.50
2018-11-01T08:07:40.070Z,6.53
2018-11-01T08:10:12.005Z,6.60
2018-11-01T08:12:41.152Z,6.23
2018-11-01T08:15:12.550Z,10.03
2018-11-01T08:17:41.464Z,7.20
2018-11-01T08:20:12.199Z,6.70
2018-11-01T08:22:40.817Z,7.00
2018-11-01T08:25:10.160Z,7.40
2018-11-01T08:27:39.352Z,7.00
2018-11-01T08:30:09.758Z,7.22
2018-11-01T08:32:38.766Z,7.80
2018-11-01T08:35:08.076Z,7.03
2018-11-01T08:37:38.014Z,7.50
2018-11-01T08:40:07.745Z,7.25
2018-11-01T08:42:36.594Z,7.40
2018-11-01T08:45:05.938Z,7.20
2018-11-01T08:47:34.602Z,7.07
2018-11-01T08:50:03.370Z,7.58
2018-11-01T08:52:32.316Z,8.30
2018-11-01T08:55:01.028Z,7.57
2018-11-01T08:57:30.168Z,7.23
2018-11-01T08:59:58.928Z,7.83
2018-11-01T09:02:27.706Z,7.63
2018-11-01T09:04:56.519Z,6.87
2018-11-01T09:07:31.567Z,7.80
2018-11-01T09:10:00.377Z,7.77
2018-11-01T09:12:29.109Z,7.80
2018-11-01T09:14:57.844Z,8.47
2018-11-01T09:17:26.665Z,7.77
2018-11-01T09:19:55.402Z,7.50
2018-11-01T09:22:24.056Z,7.93
2018-11-01T09:24:52.886Z,7.97
2018-11-01T09:27:21.722Z,8.40
2018-11-01T09:29:50.450Z,8.20
2018-11-01T09:32:19.258Z,7.87
2018-11-01T09:34:48.053Z,7.65
2018-11-01T09:37:16.752Z,8.30
2018-11-01T09:39:45.533Z,9.08
2018-11-01T09:42:14.206Z,9.00
2018-11-01T09:44:42.959Z,9.03
2018-11-01T09:47:12.095Z,8.88
2018-11-01T09:49:40.683Z,8.90
2018-11-01T09:52:09.892Z,9.00
2018-11-01T09:54:38.723Z,9.13
2018-11-01T09:57:07.728Z,9.10
2018-11-01T09:59:36.483Z,10.10
2018-11-01T10:02:05.359Z,9.40
2018-11-01T10:04:34.128Z,9.43
2018-11-01T10:07:02.862Z,9.00
2018-11-01T10:09:32.902Z,8.83
2018-11-01T10:12:02.535Z,8.97
2018-11-01T10:14:31.281Z,9.33
2018-11-01T10:17:00.433Z,9.10
2018-11-01T10:19:28.809Z,8.53
2018-11-01T10:21:57.874Z,9.40
2018-11-01T10:24:26.671Z,10.32
2018-11-01T10:26:55.379Z,9.60
2018-11-01T10:29:24.084Z,9.30
2018-11-01T10:31:52.786Z,8.13
2018-11-01T10:34:21.445Z,8.33
2018-11-01T10:36:50.146Z,10.03
2018-11-01T10:39:18.917Z,9.67
2018-11-01T10:41:47.584Z,9.60
2018-11-01T10:44:16.286Z,9.00
2018-11-01T10:46:45.055Z,9.83
2018-11-01T10:49:13.794Z,10.43
2018-11-01T10:51:42.531Z,9.60
2018-11-01T10:54:11.421Z,10.20
2018-11-01T10:56:40.125Z,10.30
2018-11-01T10:59:08.849Z,10.20
2018-11-01T11:01:42.932Z,9.18
2018-11-01T11:04:12.135Z,8.93
2018-11-01T11:06:41.821Z,9.53
2018-11-01T11:09:10.738Z,9.43
2018-11-01T11:11:39.444Z,9.20
2018-11-01T11:14:08.160Z,9.30
2018-11-01T11:16:36.879Z,9.43
2018-11-01T11:19:05.870Z,11.07
2018-11-01T11:21:34.533Z,9.23
2018-11-01T11:24:03.446Z,10.00
2018-11-01T11:26:32.663Z,9.73
2018-11-01T11:29:01.423Z,9.27
2018-11-01T11:31:30.237Z,9.10
2018-11-01T11:33:58.903Z,9.27
2018-11-01T11:36:27.658Z,9.43
2018-11-01T11:38:56.815Z,9.70
2018-11-01T11:41:25.543Z,10.13
2018-11-01T11:43:54.213Z,9.47
2018-11-01T11:46:23.041Z,9.20
2018-11-01T11:48:51.751Z,8.97
2018-11-01T11:51:20.494Z,8.30
2018-11-01T11:53:49.280Z,9.63
2018-11-01T11:56:18.006Z,9.00
2018-11-01T11:58:46.726Z,9.27
2018-11-01T12:01:15.572Z,9.15
2018-11-01T12:03:44.395Z,9.30
2018-11-01T12:06:13.199Z,8.70
2018-11-01T12:08:42.039Z,9.90
2018-11-01T12:11:10.723Z,8.85
2018-11-01T12:13:39.413Z,9.57
2018-11-01T12:16:08.231Z,8.70
2018-11-01T12:18:37.214Z,8.90
2018-11-01T12:21:06.016Z,9.15
2018-11-01T12:23:34.875Z,8.60
2018-11-01T12:26:03.612Z,9.07
2018-11-01T12:28:32.884Z,8.77
2018-11-01T12:31:01.702Z,8.30
2018-11-01T12:33:30.378Z,9.20
2018-11-01T12:35:59.099Z,8.73
2018-11-01T12:38:27.802Z,9.53
2018-11-01T12:40:56.478Z,8.47
2018-11-01T12:43:25.270Z,9.43
2018-11-01T12:45:54.098Z,10.67
2018-11-01T12:48:22.770Z,8.93
2018-11-01T12:50:51.506Z,8.50
2018-11-01T12:53:20.238Z,8.65
2018-11-01T12:55:48.938Z,8.58
2018-11-01T12:58:17.623Z,9.57
2018-11-01T13:00:46.364Z,8.68
2018-11-01T13:03:15.051Z,8.38
2018-11-01T13:05:46.791Z,8.50
2018-11-01T13:08:15.658Z,8.13
2018-11-01T13:10:44.422Z,8.25
2018-11-01T13:13:13.085Z,8.85
2018-11-01T13:15:41.938Z,8.57
2018-11-01T13:18:10.694Z,8.33
2018-11-01T13:20:39.341Z,8.20
2018-11-01T13:23:08.106Z,8.53
2018-11-01T13:25:36.794Z,8.30
2018-11-01T13:28:05.591Z,7.93
2018-11-01T13:30:34.642Z,9.03
2018-11-01T13:33:03.367Z,8.23
2018-11-01T13:35:32.948Z,8.30
2018-11-01T13:38:01.718Z,9.10
2018-11-01T13:40:30.734Z,8.90
2018-11-01T13:42:59.198Z,8.70
2018-11-01T13:45:27.946Z,8.57
2018-11-01T13:47:56.690Z,9.57
2018-11-01T13:50:25.345Z,10.40
2018-11-01T13:52:54.098Z,9.77
2018-11-01T13:55:22.815Z,8.67
2018-11-01T13:57:51.632Z,8.57
2018-11-01T14:00:20.381Z,8.53
2018-11-01T14:02:49.194Z,8.63
2018-11-01T14:05:17.994Z,8.53
2018-11-01T14:07:46.974Z,9.83
2018-11-01T14:10:16.422Z,9.03
2018-11-01T14:12:45.192Z,9.68
2018-11-01T14:15:14.421Z,8.35
2018-11-01T14:17:42.758Z,8.13
2018-11-01T14:20:12.613Z,8.20
2018-11-01T14:22:41.499Z,9.30
2018-11-01T14:25:11.278Z,9.13
2018-11-01T14:27:40.000Z,9.10
2018-11-01T14:30:11.904Z,10.78
2018-11-01T14:32:41.184Z,9.70
2018-11-01T14:35:10.530Z,12.83
2018-11-01T14:37:39.372Z,12.73
2018-11-01T14:40:10.322Z,10.87
2018-11-01T14:42:39.149Z,11.63
2018-11-01T14:45:08.340Z,10.75
2018-11-01T14:47:37.056Z,10.40
2018-11-01T14:50:07.010Z,11.97
2018-11-01T14:52:36.081Z,10.27
2018-11-01T14:55:06.189Z,10.77
2018-11-01T14:57:34.833Z,10.40
2018-11-01T15:00:03.104Z,9.80
2018-11-01T15:02:31.883Z,10.97
2018-11-01T15:05:00.589Z,11.53
2018-11-01T15:07:29.354Z,9.70
2018-11-01T15:09:58.288Z,9.33
2018-11-01T15:12:27.004Z,9.90
2018-11-01T15:14:55.795Z,9.67
2018-11-01T15:17:24.461Z,9.47
2018-11-01T15:19:53.139Z,10.67
2018-11-01T15:22:21.866Z,9.53
2018-11-01T15:24:50.590Z,9.45
2018-11-01T15:27:19.280Z,9.17
2018-11-01T15:29:48.299Z,10.33
2018-11-01T15:32:22.201Z,11.90
2018-11-01T15:34:51.014Z,10.13
2018-11-01T15:37:19.827Z,10.50
2018-11-01T15:39:48.986Z,10.10
2018-11-01T15:42:18.013Z,10.40
2018-11-01T15:44:47.247Z,10.32
2018-11-01T15:47:15.956Z,11.83
2018-11-01T15:49:45.080Z,10.72
2018-11-01T15:52:13.764Z,10.80
2018-11-01T15:54:43.410Z,10.53
2018-11-01T15:57:12.133Z,10.70
2018-11-01T15:59:40.925Z,9.07
2018-11-01T16:02:09.578Z,9.90
2018-11-01T16:04:38.391Z,10.73
2018-11-01T16:07:07.338Z,10.00
2018-11-01T16:09:36.031Z,9.77
2018-11-01T16:12:05.007Z,9.97
2018-11-01T16:14:33.707Z,9.83
2018-11-01T16:17:03.237Z,10.50
2018-11-01T16:19:32.115Z,10.23
2018-11-01T16:22:00.742Z,10.97
2018-11-01T16:24:29.405Z,11.37
2018-11-01T16:26:58.334Z,10.32
2018-11-01T16:29:27.084Z,10.97
2018-11-01T16:31:55.794Z,9.77
2018-11-01T16:34:24.653Z,10.63
2018-11-01T16:36:53.523Z,10.80
2018-11-01T16:39:22.186Z,11.08
2018-11-01T16:41:50.959Z,10.93
2018-11-01T16:44:19.726Z,10.70
2018-11-01T16:46:49.615Z,11.20
2018-11-01T16:49:18.327Z,11.28
2018-11-01T16:51:47.064Z,10.33
2018-11-01T16:54:15.735Z,11.43
2018-11-01T16:56:44.562Z,11.80
2018-11-01T16:59:13.308Z,12.18
2018-11-01T17:01:42.090Z,12.17
2018-11-01T17:04:10.930Z,11.43
2018-11-01T17:06:39.606Z,12.27
2018-11-01T17:09:09.842Z,12.77
2018-11-01T17:11:38.786Z,12.60
2018-11-01T17:14:07.785Z,11.93
2018-11-01T17:16:37.024Z,11.43
2018-11-01T17:19:06.565Z,11.97
2018-11-01T17:21:35.229Z,16.50
2018-11-01T17:24:04.134Z,16.20
2018-11-01T17:26:33.437Z,15.13
2018-11-01T17:29:02.140Z,13.00
2018-11-01T17:31:30.879Z,12.77
2018-11-01T17:33:59.819Z,12.40
2018-11-01T17:36:28.561Z,13.20
2018-11-01T17:38:57.247Z,12.43
2018-11-01T17:41:26.000Z,13.30
2018-11-01T17:43:54.805Z,12.67
2018-11-01T17:46:23.565Z,15.30
2018-11-01T17:48:52.310Z,14.97
2018-11-01T17:51:21.066Z,15.50
2018-11-01T17:53:49.768Z,14.23
2018-11-01T17:56:18.598Z,13.80
2018-11-01T17:58:47.303Z,13.47
2018-11-01T18:01:16.003Z,13.83
2018-11-01T18:03:44.739Z,14.35
2018-11-01T18:06:13.533Z,14.83
2018-11-01T18:08:42.312Z,14.90
2018-11-01T18:11:11.281Z,15.47
2018-11-01T18:13:39.991Z,15.57
2018-11-01T18:16:08.963Z,13.97
2018-11-01T18:18:37.787Z,14.20
2018-11-01T18:21:06.739Z,18.55
2018-11-01T18:23:35.450Z,20.10
2018-11-01T18:26:04.251Z,16.50
2018-11-01T18:28:33.411Z,15.75
2018-11-01T18:31:02.102Z,15.23
2018-11-01T18:33:30.972Z,15.70
2018-11-01T18:35:59.678Z,14.77
2018-11-01T18:38:28.457Z,14.75
2018-11-01T18:40:57.373Z,15.00
2018-11-01T18:43:26.415Z,15.77
2018-11-01T18:45:55.298Z,14.87
2018-11-01T18:48:24.231Z,13.97
2018-11-01T18:50:53.136Z,14.87
2018-11-01T18:53:21.865Z,15.00
2018-11-01T18:55:50.712Z,13.77
2018-11-01T18:58:19.466Z,14.70
2018-11-01T19:00:48.717Z,13.93
2018-11-01T19:03:21.558Z,14.60
2018-11-01T19:05:50.448Z,14.90
2018-11-01T19:08:19.236Z,15.00
2018-11-01T19:10:48.341Z,14.55
2018-11-01T19:13:17.197Z,14.53
2018-11-01T19:15:45.976Z,14.30
2018-11-01T19:18:14.899Z,14.93
2018-11-01T19:20:43.598Z,14.97
2018-11-01T19:23:12.306Z,14.20
2018-11-01T19:25:41.164Z,21.73
2018-11-01T19:28:09.915Z,15.93
2018-11-01T19:30:38.635Z,15.72
2018-11-01T19:33:07.836Z,15.13
2018-11-01T19:35:36.550Z,14.20
2018-11-01T19:38:05.290Z,14.00
2018-11-01T19:40:34.134Z,15.67
2018-11-01T19:43:03.614Z,14.85
2018-11-01T19:45:32.334Z,15.03
2018-11-01T19:48:01.349Z,14.90
2018-11-01T19:50:30.070Z,14.43
2018-11-01T19:52:58.770Z,14.40
2018-11-01T19:55:27.530Z,14.17
2018-11-01T19:57:56.269Z,13.87
2018-11-01T20:00:24.942Z,12.87
2018-11-01T20:02:53.855Z,12.70
2018-11-01T20:05:22.483Z,12.50
2018-11-01T20:07:51.269Z,14.03
2018-11-01T20:10:20.228Z,13.45
2018-11-01T20:12:48.920Z,13.37
2018-11-01T20:15:17.639Z,13.62
2018-11-01T20:17:46.558Z,12.87
2018-11-01T20:20:15.655Z,14.03
2018-11-01T20:22:45.552Z,13.45
2018-11-01T20:25:14.429Z,12.90
2018-11-01T20:27:43.277Z,22.00
2018-11-01T20:30:13.907Z,18.40
2018-11-01T20:32:43.396Z,14.90
2018-11-01T20:35:13.297Z,14.43
2018-11-01T20:37:42.527Z,13.08
2018-11-01T20:40:11.455Z,13.25
2018-11-01T20:42:40.707Z,13.22
2018-11-01T20:45:10.821Z,13.33
2018-11-01T20:47:39.786Z,13.20
2018-11-01T20:50:09.791Z,12.43
2018-11-01T20:52:38.478Z,11.90
2018-11-01T20:55:07.459Z,9.97
2018-11-01T20:57:36.232Z,10.20
2018-11-01T21:00:05.830Z,10.80
2018-11-01T21:02:34.835Z,10.07
2018-11-01T21:05:03.824Z,10.32
2018-11-01T21:07:32.516Z,11.37
2018-11-01T21:10:01.270Z,10.83
2018-11-01T21:12:29.988Z,10.47
2018-11-01T21:14:58.688Z,10.50
2018-11-01T21:17:27.556Z,10.73
2018-11-01T21:19:56.391Z,10.50
2018-11-01T21:22:25.255Z,10.63
2018-11-01T21:24:54.303Z,11.47
2018-11-01T21:27:23.032Z,11.83
2018-11-01T21:29:51.739Z,10.90
2018-11-01T21:32:20.586Z,10.90
2018-11-01T21:34:49.314Z,10.50
2018-11-01T21:37:18.010Z,11.27
2018-11-01T21:39:46.921Z,11.18
2018-11-01T21:42:15.638Z,11.27
2018-11-01T21:44:44.593Z,10.72
2018-11-01T21:47:14.323Z,10.50
2018-11-01T21:49:43.024Z,12.17
2018-11-01T21:52:11.762Z,12.20
2018-11-01T21:54:40.619Z,13.30
2018-11-01T21:57:09.306Z,12.97
2018-11-01T21:59:38.016Z,13.68
2018-11-01T22:02:06.884Z,13.43
2018-11-01T22:04:35.620Z,12.77
2018-11-01T22:07:04.420Z,15.10
2018-11-01T22:09:33.907Z,14.47
2018-11-01T22:12:02.690Z,14.33
2018-11-01T22:14:31.400Z,15.10
2018-11-01T22:17:00.195Z,15.10
2018-11-01T22:19:28.976Z,15.73
2018-11-01T22:21:57.810Z,15.17
2018-11-01T22:24:26.706Z,16.17
2018-11-01T22:26:55.447Z,16.03
2018-11-01T22:29:24.170Z,16.20
2018-11-01T22:31:53.257Z,17.17
2018-11-01T22:34:22.094Z,15.67
2018-11-01T22:36:50.845Z,15.97
2018-11-01T22:39:19.665Z,16.93
2018-11-01T22:41:48.374Z,15.95
2018-11-01T22:44:17.048Z,17.17
2018-11-01T22:46:45.872Z,15.83
2018-11-01T22:49:14.570Z,18.10
2018-11-01T22:51:43.280Z,20.27
2018-11-01T22:54:12.092Z,17.65
2018-11-01T22:56:40.787Z,18.32
2018-11-01T22:59:09.565Z,17.35
2018-11-01T23:01:38.947Z,17.23
2018-11-01T23:04:07.855Z,18.50
2018-11-01T23:06:36.614Z,18.17
2018-11-01T23:09:07.741Z,18.20
2018-11-01T23:11:36.480Z,19.60
2018-11-01T23:14:05.307Z,18.60
2018-11-01T23:16:34.431Z,20.30
2018-11-01T23:19:04.018Z,19.03
2018-11-01T23:21:32.710Z,18.97
2018-11-01T23:24:01.471Z,19.83
2018-11-01T23:26:31.204Z,19.97
2018-11-01T23:29:00.071Z,19.50
2018-11-01T23:31:28.834Z,20.33
2018-11-01T23:33:57.616Z,19.87
2018-11-01T23:36:25.448Z,17.77
2018-11-01T23:38:59.302Z,18.03
2018-11-01T23:41:33.078Z,19.00
2018-11-01T23:44:06.973Z,18.73
2018-11-01T23:46:40.909Z,17.23
2018-11-01T23:49:17.546Z,17.60
2018-11-01T23:52:49.142Z,19.00
2018-11-01T23:55:17.995Z,18.73
2018-11-01T23:57:46.743Z,19.50
